sensor_id;sensor_type;location;lat;lon;timestamp;temperature;humidity
47861;HTU21D;33620;52.340;5.984;2023-04-06T00:02:02;4.44;68.37
47861;HTU21D;33620;52.340;5.984;2023-04-06T00:04:27;4.42;68.42
47861;HTU21D;33620;52.340;5.984;2023-04-06T00:06:52;4.36;68.57
47861;HTU21D;33620;52.340;5.984;2023-04-06T00:09:18;4.37;68.67
47861;HTU21D;33620;52.340;5.984;2023-04-06T00:11:43;4.37;68.61
47861;HTU21D;33620;52.340;5.984;2023-04-06T00:14:08;4.36;68.59
47861;HTU21D;33620;52.340;5.984;2023-04-06T00:16:34;4.42;68.64
47861;HTU21D;33620;52.340;5.984;2023-04-06T00:18:59;4.33;68.71
47861;HTU21D;33620;52.340;5.984;2023-04-06T00:21:24;4.28;68.72
47861;HTU21D;33620;52.340;5.984;2023-04-06T00:23:50;4.21;68.66
47861;HTU21D;33620;52.340;5.984;2023-04-06T00:26:16;4.19;68.75
47861;HTU21D;33620;52.340;5.984;2023-04-06T00:28:41;4.14;68.44
47861;HTU21D;33620;52.340;5.984;2023-04-06T00:31:06;4.05;68.55
47861;HTU21D;33620;52.340;5.984;2023-04-06T00:33:32;4.05;68.66
47861;HTU21D;33620;52.340;5.984;2023-04-06T00:35:57;4.00;68.53
47861;HTU21D;33620;52.340;5.984;2023-04-06T00:38:22;4.01;68.62
47861;HTU21D;33620;52.340;5.984;2023-04-06T00:40:48;3.98;68.79
47861;HTU21D;33620;52.340;5.984;2023-04-06T00:43:13;3.95;68.78
47861;HTU21D;33620;52.340;5.984;2023-04-06T00:45:39;3.92;69.00
47861;HTU21D;33620;52.340;5.984;2023-04-06T00:48:05;3.88;69.14
47861;HTU21D;33620;52.340;5.984;2023-04-06T00:50:30;3.89;69.04
47861;HTU21D;33620;52.340;5.984;2023-04-06T00:52:55;3.92;68.86
47861;HTU21D;33620;52.340;5.984;2023-04-06T00:55:21;3.95;69.25
47861;HTU21D;33620;52.340;5.984;2023-04-06T00:57:46;3.90;69.00
47861;HTU21D;33620;52.340;5.984;2023-04-06T01:00:12;3.86;68.98
47861;HTU21D;33620;52.340;5.984;2023-04-06T01:02:38;3.78;69.30
47861;HTU21D;33620;52.340;5.984;2023-04-06T01:05:03;3.77;69.43
47861;HTU21D;33620;52.340;5.984;2023-04-06T01:07:29;3.82;69.45
47861;HTU21D;33620;52.340;5.984;2023-04-06T01:09:54;3.87;69.65
47861;HTU21D;33620;52.340;5.984;2023-04-06T01:12:20;3.89;69.46
47861;HTU21D;33620;52.340;5.984;2023-04-06T01:14:45;3.89;69.50
47861;HTU21D;33620;52.340;5.984;2023-04-06T01:17:10;3.86;69.49
47861;HTU21D;33620;52.340;5.984;2023-04-06T01:19:36;3.88;69.57
47861;HTU21D;33620;52.340;5.984;2023-04-06T01:22:01;3.86;69.46
47861;HTU21D;33620;52.340;5.984;2023-04-06T01:24:27;3.79;69.58
47861;HTU21D;33620;52.340;5.984;2023-04-06T01:26:52;3.75;69.77
47861;HTU21D;33620;52.340;5.984;2023-04-06T01:29:17;3.76;69.99
47861;HTU21D;33620;52.340;5.984;2023-04-06T01:31:42;3.77;70.20
47861;HTU21D;33620;52.340;5.984;2023-04-06T01:34:08;3.73;70.12
47861;HTU21D;33620;52.340;5.984;2023-04-06T01:36:33;3.65;70.33
47861;HTU21D;33620;52.340;5.984;2023-04-06T01:38:58;3.60;70.61
47861;HTU21D;33620;52.340;5.984;2023-04-06T01:41:24;3.59;70.60
47861;HTU21D;33620;52.340;5.984;2023-04-06T01:43:49;3.56;70.57
47861;HTU21D;33620;52.340;5.984;2023-04-06T01:46:15;3.53;70.74
47861;HTU21D;33620;52.340;5.984;2023-04-06T01:48:40;3.53;70.39
47861;HTU21D;33620;52.340;5.984;2023-04-06T01:51:06;3.48;70.40
47861;HTU21D;33620;52.340;5.984;2023-04-06T01:53:31;3.46;70.52
47861;HTU21D;33620;52.340;5.984;2023-04-06T01:55:57;3.43;70.48
47861;HTU21D;33620;52.340;5.984;2023-04-06T01:58:22;3.40;70.58
47861;HTU21D;33620;52.340;5.984;2023-04-06T02:00:47;3.39;70.81
47861;HTU21D;33620;52.340;5.984;2023-04-06T02:03:12;3.38;70.76
47861;HTU21D;33620;52.340;5.984;2023-04-06T02:05:39;3.33;70.77
47861;HTU21D;33620;52.340;5.984;2023-04-06T02:08:05;3.31;71.00
47861;HTU21D;33620;52.340;5.984;2023-04-06T02:10:30;3.29;70.81
47861;HTU21D;33620;52.340;5.984;2023-04-06T02:12:56;3.29;70.85
47861;HTU21D;33620;52.340;5.984;2023-04-06T02:15:21;3.26;70.79
47861;HTU21D;33620;52.340;5.984;2023-04-06T02:17:46;3.28;70.94
47861;HTU21D;33620;52.340;5.984;2023-04-06T02:20:12;3.28;71.00
47861;HTU21D;33620;52.340;5.984;2023-04-06T02:22:38;3.32;71.05
47861;HTU21D;33620;52.340;5.984;2023-04-06T02:25:04;3.31;70.90
47861;HTU21D;33620;52.340;5.984;2023-04-06T02:27:29;3.29;70.95
47861;HTU21D;33620;52.340;5.984;2023-04-06T02:29:55;3.27;70.90
47861;HTU21D;33620;52.340;5.984;2023-04-06T02:32:20;3.19;71.06
47861;HTU21D;33620;52.340;5.984;2023-04-06T02:34:45;3.20;71.38
47861;HTU21D;33620;52.340;5.984;2023-04-06T02:37:11;3.28;71.52
47861;HTU21D;33620;52.340;5.984;2023-04-06T02:39:36;3.28;71.38
47861;HTU21D;33620;52.340;5.984;2023-04-06T02:42:01;3.29;71.55
47861;HTU21D;33620;52.340;5.984;2023-04-06T02:44:26;3.24;71.34
47861;HTU21D;33620;52.340;5.984;2023-04-06T02:46:52;3.19;71.50
47861;HTU21D;33620;52.340;5.984;2023-04-06T02:49:17;3.14;71.57
47861;HTU21D;33620;52.340;5.984;2023-04-06T02:51:42;3.10;71.79
47861;HTU21D;33620;52.340;5.984;2023-04-06T02:54:07;3.09;72.00
47861;HTU21D;33620;52.340;5.984;2023-04-06T02:56:33;3.06;72.05
47861;HTU21D;33620;52.340;5.984;2023-04-06T02:58:58;3.10;72.02
47861;HTU21D;33620;52.340;5.984;2023-04-06T03:01:23;3.06;72.03
47861;HTU21D;33620;52.340;5.984;2023-04-06T03:03:48;3.09;72.09
47861;HTU21D;33620;52.340;5.984;2023-04-06T03:06:14;3.09;71.96
47861;HTU21D;33620;52.340;5.984;2023-04-06T03:08:40;3.06;72.00
47861;HTU21D;33620;52.340;5.984;2023-04-06T03:11:05;3.06;72.35
47861;HTU21D;33620;52.340;5.984;2023-04-06T03:13:30;3.08;72.14
47861;HTU21D;33620;52.340;5.984;2023-04-06T03:15:56;3.05;72.15
47861;HTU21D;33620;52.340;5.984;2023-04-06T03:18:22;3.04;72.47
47861;HTU21D;33620;52.340;5.984;2023-04-06T03:20:48;3.02;72.55
47861;HTU21D;33620;52.340;5.984;2023-04-06T03:23:13;3.02;72.64
47861;HTU21D;33620;52.340;5.984;2023-04-06T03:25:39;3.05;72.70
47861;HTU21D;33620;52.340;5.984;2023-04-06T03:28:07;3.01;72.61
47861;HTU21D;33620;52.340;5.984;2023-04-06T03:30:32;2.99;72.74
47861;HTU21D;33620;52.340;5.984;2023-04-06T03:32:57;2.98;72.80
47861;HTU21D;33620;52.340;5.984;2023-04-06T03:35:23;2.97;72.70
47861;HTU21D;33620;52.340;5.984;2023-04-06T03:37:48;2.93;72.64
47861;HTU21D;33620;52.340;5.984;2023-04-06T03:40:14;2.89;72.63
47861;HTU21D;33620;52.340;5.984;2023-04-06T03:42:40;2.90;72.75
47861;HTU21D;33620;52.340;5.984;2023-04-06T03:45:05;2.93;72.80
47861;HTU21D;33620;52.340;5.984;2023-04-06T03:47:31;2.94;72.71
47861;HTU21D;33620;52.340;5.984;2023-04-06T03:49:56;2.91;72.93
47861;HTU21D;33620;52.340;5.984;2023-04-06T03:52:21;2.93;73.06
47861;HTU21D;33620;52.340;5.984;2023-04-06T03:54:48;2.94;73.17
47861;HTU21D;33620;52.340;5.984;2023-04-06T03:57:13;2.96;73.27
47861;HTU21D;33620;52.340;5.984;2023-04-06T03:59:38;2.97;73.34
47861;HTU21D;33620;52.340;5.984;2023-04-06T04:02:04;2.99;73.28
47861;HTU21D;33620;52.340;5.984;2023-04-06T04:04:29;3.00;73.44
47861;HTU21D;33620;52.340;5.984;2023-04-06T04:06:55;3.01;73.48
47861;HTU21D;33620;52.340;5.984;2023-04-06T04:09:20;3.02;73.54
47861;HTU21D;33620;52.340;5.984;2023-04-06T04:11:45;3.06;73.67
47861;HTU21D;33620;52.340;5.984;2023-04-06T04:14:10;3.08;73.70
47861;HTU21D;33620;52.340;5.984;2023-04-06T04:16:36;3.09;73.93
47861;HTU21D;33620;52.340;5.984;2023-04-06T04:19:01;3.08;74.11
47861;HTU21D;33620;52.340;5.984;2023-04-06T04:21:28;3.13;74.20
47861;HTU21D;33620;52.340;5.984;2023-04-06T04:23:55;3.14;73.97
47861;HTU21D;33620;52.340;5.984;2023-04-06T04:26:20;3.10;73.82
47861;HTU21D;33620;52.340;5.984;2023-04-06T04:28:46;3.08;74.12
47861;HTU21D;33620;52.340;5.984;2023-04-06T04:31:11;3.09;74.37
47861;HTU21D;33620;52.340;5.984;2023-04-06T04:33:36;3.13;74.33
47861;HTU21D;33620;52.340;5.984;2023-04-06T04:36:01;3.14;74.30
47861;HTU21D;33620;52.340;5.984;2023-04-06T04:38:27;3.17;74.03
47861;HTU21D;33620;52.340;5.984;2023-04-06T04:40:52;3.14;74.02
47861;HTU21D;33620;52.340;5.984;2023-04-06T04:43:17;3.16;74.15
47861;HTU21D;33620;52.340;5.984;2023-04-06T04:45:43;3.23;73.94
47861;HTU21D;33620;52.340;5.984;2023-04-06T04:48:08;3.21;74.10
47861;HTU21D;33620;52.340;5.984;2023-04-06T04:50:33;3.23;74.00
47861;HTU21D;33620;52.340;5.984;2023-04-06T04:52:59;3.15;74.04
47861;HTU21D;33620;52.340;5.984;2023-04-06T04:55:24;3.11;74.16
47861;HTU21D;33620;52.340;5.984;2023-04-06T04:57:49;3.11;74.28
47861;HTU21D;33620;52.340;5.984;2023-04-06T05:00:15;3.10;74.38
47861;HTU21D;33620;52.340;5.984;2023-04-06T05:02:40;3.08;74.66
47861;HTU21D;33620;52.340;5.984;2023-04-06T05:05:06;3.11;74.64
47861;HTU21D;33620;52.340;5.984;2023-04-06T05:07:31;3.18;74.77
47861;HTU21D;33620;52.340;5.984;2023-04-06T05:09:56;3.24;74.56
47861;HTU21D;33620;52.340;5.984;2023-04-06T05:12:22;3.24;74.47
47861;HTU21D;33620;52.340;5.984;2023-04-06T05:14:47;3.21;74.68
47861;HTU21D;33620;52.340;5.984;2023-04-06T05:17:12;3.23;74.91
47861;HTU21D;33620;52.340;5.984;2023-04-06T05:19:38;3.29;74.99
47861;HTU21D;33620;52.340;5.984;2023-04-06T05:22:03;3.26;75.12
47861;HTU21D;33620;52.340;5.984;2023-04-06T05:24:28;3.28;75.25
47861;HTU21D;33620;52.340;5.984;2023-04-06T05:26:54;3.31;75.30
47861;HTU21D;33620;52.340;5.984;2023-04-06T05:29:19;3.34;75.25
47861;HTU21D;33620;52.340;5.984;2023-04-06T05:31:45;3.36;75.12
47861;HTU21D;33620;52.340;5.984;2023-04-06T05:34:10;3.43;74.76
47861;HTU21D;33620;52.340;5.984;2023-04-06T05:36:37;3.45;74.43
47861;HTU21D;33620;52.340;5.984;2023-04-06T05:39:02;3.47;74.47
47861;HTU21D;33620;52.340;5.984;2023-04-06T05:41:28;3.50;74.33
47861;HTU21D;33620;52.340;5.984;2023-04-06T05:43:53;3.50;74.43
47861;HTU21D;33620;52.340;5.984;2023-04-06T05:46:18;3.55;73.69
47861;HTU21D;33620;52.340;5.984;2023-04-06T05:48:44;3.58;73.62
47861;HTU21D;33620;52.340;5.984;2023-04-06T05:51:10;3.62;73.86
47861;HTU21D;33620;52.340;5.984;2023-04-06T05:53:35;3.71;73.78
47861;HTU21D;33620;52.340;5.984;2023-04-06T05:56:01;3.76;73.39
47861;HTU21D;33620;52.340;5.984;2023-04-06T05:58:26;3.80;73.07
47861;HTU21D;33620;52.340;5.984;2023-04-06T06:00:56;3.85;72.96
47861;HTU21D;33620;52.340;5.984;2023-04-06T06:03:21;3.90;72.80
47861;HTU21D;33620;52.340;5.984;2023-04-06T06:05:47;3.91;72.56
47861;HTU21D;33620;52.340;5.984;2023-04-06T06:08:13;3.93;72.44
47861;HTU21D;33620;52.340;5.984;2023-04-06T06:10:38;3.97;72.36
47861;HTU21D;33620;52.340;5.984;2023-04-06T06:13:04;4.02;72.00
47861;HTU21D;33620;52.340;5.984;2023-04-06T06:15:29;4.05;70.75
47861;HTU21D;33620;52.340;5.984;2023-04-06T06:17:55;4.09;70.31
47861;HTU21D;33620;52.340;5.984;2023-04-06T06:20:20;4.12;70.01
47861;HTU21D;33620;52.340;5.984;2023-04-06T06:22:45;4.15;69.58
47861;HTU21D;33620;52.340;5.984;2023-04-06T06:25:11;4.17;69.45
47861;HTU21D;33620;52.340;5.984;2023-04-06T06:27:36;4.20;69.61
47861;HTU21D;33620;52.340;5.984;2023-04-06T06:30:02;4.24;68.86
47861;HTU21D;33620;52.340;5.984;2023-04-06T06:32:27;4.29;68.94
47861;HTU21D;33620;52.340;5.984;2023-04-06T06:34:52;4.37;68.60
47861;HTU21D;33620;52.340;5.984;2023-04-06T06:37:18;4.46;68.03
47861;HTU21D;33620;52.340;5.984;2023-04-06T06:39:43;4.54;67.53
47861;HTU21D;33620;52.340;5.984;2023-04-06T06:42:08;4.64;67.57
47861;HTU21D;33620;52.340;5.984;2023-04-06T06:44:33;4.75;68.08
47861;HTU21D;33620;52.340;5.984;2023-04-06T06:46:59;4.87;68.21
47861;HTU21D;33620;52.340;5.984;2023-04-06T06:49:24;4.94;67.65
47861;HTU21D;33620;52.340;5.984;2023-04-06T06:51:49;4.98;67.68
47861;HTU21D;33620;52.340;5.984;2023-04-06T06:54:15;5.02;67.40
47861;HTU21D;33620;52.340;5.984;2023-04-06T06:56:40;5.06;67.46
47861;HTU21D;33620;52.340;5.984;2023-04-06T06:59:05;5.08;67.62
47861;HTU21D;33620;52.340;5.984;2023-04-06T07:01:34;5.11;67.43
47861;HTU21D;33620;52.340;5.984;2023-04-06T07:03:59;5.17;67.75
47861;HTU21D;33620;52.340;5.984;2023-04-06T07:06:25;5.23;68.04
47861;HTU21D;33620;52.340;5.984;2023-04-06T07:08:50;5.28;68.17
47861;HTU21D;33620;52.340;5.984;2023-04-06T07:11:15;5.37;68.36
47861;HTU21D;33620;52.340;5.984;2023-04-06T07:13:41;5.42;67.46
47861;HTU21D;33620;52.340;5.984;2023-04-06T07:16:07;5.49;67.31
47861;HTU21D;33620;52.340;5.984;2023-04-06T07:18:32;5.54;67.43
47861;HTU21D;33620;52.340;5.984;2023-04-06T07:20:57;5.65;67.86
47861;HTU21D;33620;52.340;5.984;2023-04-06T07:23:22;5.76;67.85
47861;HTU21D;33620;52.340;5.984;2023-04-06T07:25:48;5.87;68.30
47861;HTU21D;33620;52.340;5.984;2023-04-06T07:28:16;6.00;67.84
47861;HTU21D;33620;52.340;5.984;2023-04-06T07:30:41;6.11;67.46
47861;HTU21D;33620;52.340;5.984;2023-04-06T07:33:07;6.23;66.76
47861;HTU21D;33620;52.340;5.984;2023-04-06T07:35:32;6.31;66.52
47861;HTU21D;33620;52.340;5.984;2023-04-06T07:37:58;6.42;66.29
47861;HTU21D;33620;52.340;5.984;2023-04-06T07:40:23;6.53;67.33
47861;HTU21D;33620;52.340;5.984;2023-04-06T07:42:48;6.59;66.89
47861;HTU21D;33620;52.340;5.984;2023-04-06T07:45:14;6.70;66.74
47861;HTU21D;33620;52.340;5.984;2023-04-06T07:47:40;6.80;65.98
47861;HTU21D;33620;52.340;5.984;2023-04-06T07:50:06;6.88;66.06
47861;HTU21D;33620;52.340;5.984;2023-04-06T07:52:31;6.98;66.27
47861;HTU21D;33620;52.340;5.984;2023-04-06T07:54:57;7.07;64.88
47861;HTU21D;33620;52.340;5.984;2023-04-06T07:57:22;7.14;64.77
47861;HTU21D;33620;52.340;5.984;2023-04-06T07:59:48;7.18;64.18
47861;HTU21D;33620;52.340;5.984;2023-04-06T08:02:13;7.24;63.98
47861;HTU21D;33620;52.340;5.984;2023-04-06T08:04:38;7.27;63.96
47861;HTU21D;33620;52.340;5.984;2023-04-06T08:07:04;7.32;63.47
47861;HTU21D;33620;52.340;5.984;2023-04-06T08:09:29;7.38;63.71
47861;HTU21D;33620;52.340;5.984;2023-04-06T08:11:55;7.44;63.39
47861;HTU21D;33620;52.340;5.984;2023-04-06T08:14:20;7.47;62.97
47861;HTU21D;33620;52.340;5.984;2023-04-06T08:16:46;7.54;62.78
47861;HTU21D;33620;52.340;5.984;2023-04-06T08:19:11;7.64;62.84
47861;HTU21D;33620;52.340;5.984;2023-04-06T08:21:36;7.74;62.92
47861;HTU21D;33620;52.340;5.984;2023-04-06T08:24:02;7.86;62.90
47861;HTU21D;33620;52.340;5.984;2023-04-06T08:26:27;7.93;62.50
47861;HTU21D;33620;52.340;5.984;2023-04-06T08:28:53;8.02;62.50
47861;HTU21D;33620;52.340;5.984;2023-04-06T08:31:18;8.05;62.47
47861;HTU21D;33620;52.340;5.984;2023-04-06T08:33:43;8.11;61.83
47861;HTU21D;33620;52.340;5.984;2023-04-06T08:36:12;8.12;61.96
47861;HTU21D;33620;52.340;5.984;2023-04-06T08:38:38;8.14;61.29
47861;HTU21D;33620;52.340;5.984;2023-04-06T08:41:07;8.18;61.89
47861;HTU21D;33620;52.340;5.984;2023-04-06T08:43:33;8.23;62.34
47861;HTU21D;33620;52.340;5.984;2023-04-06T08:46:00;8.29;62.45
47861;HTU21D;33620;52.340;5.984;2023-04-06T08:48:26;8.34;62.39
47861;HTU21D;33620;52.340;5.984;2023-04-06T08:50:51;8.36;60.76
47861;HTU21D;33620;52.340;5.984;2023-04-06T08:53:17;8.38;61.05
47861;HTU21D;33620;52.340;5.984;2023-04-06T08:55:42;8.45;61.38
47861;HTU21D;33620;52.340;5.984;2023-04-06T08:58:08;8.53;62.52
47861;HTU21D;33620;52.340;5.984;2023-04-06T09:00:36;8.57;61.41
47861;HTU21D;33620;52.340;5.984;2023-04-06T09:03:01;8.62;61.09
47861;HTU21D;33620;52.340;5.984;2023-04-06T09:05:28;8.68;61.54
47861;HTU21D;33620;52.340;5.984;2023-04-06T09:07:54;8.74;60.50
47861;HTU21D;33620;52.340;5.984;2023-04-06T09:10:19;8.76;59.73
47861;HTU21D;33620;52.340;5.984;2023-04-06T09:12:45;8.82;60.44
47861;HTU21D;33620;52.340;5.984;2023-04-06T09:15:18;8.90;60.60
47861;HTU21D;33620;52.340;5.984;2023-04-06T09:17:44;8.96;60.43
47861;HTU21D;33620;52.340;5.984;2023-04-06T09:20:09;9.01;60.24
47861;HTU21D;33620;52.340;5.984;2023-04-06T09:22:36;9.06;59.48
47861;HTU21D;33620;52.340;5.984;2023-04-06T09:25:02;9.06;58.36
47861;HTU21D;33620;52.340;5.984;2023-04-06T09:27:34;9.09;59.71
47861;HTU21D;33620;52.340;5.984;2023-04-06T09:30:09;9.14;59.38
47861;HTU21D;33620;52.340;5.984;2023-04-06T09:35:13;9.27;59.05
47861;HTU21D;33620;52.340;5.984;2023-04-06T09:37:38;9.39;57.87
47861;HTU21D;33620;52.340;5.984;2023-04-06T09:40:04;9.50;57.72
47861;HTU21D;33620;52.340;5.984;2023-04-06T09:42:30;9.60;57.59
47861;HTU21D;33620;52.340;5.984;2023-04-06T09:44:55;9.69;57.54
47861;HTU21D;33620;52.340;5.984;2023-04-06T09:47:21;9.75;57.48
47861;HTU21D;33620;52.340;5.984;2023-04-06T09:49:48;9.85;57.66
47861;HTU21D;33620;52.340;5.984;2023-04-06T09:52:14;9.97;57.54
47861;HTU21D;33620;52.340;5.984;2023-04-06T09:54:40;10.06;57.76
47861;HTU21D;33620;52.340;5.984;2023-04-06T09:57:07;10.16;58.22
47861;HTU21D;33620;52.340;5.984;2023-04-06T09:59:40;10.29;57.37
47861;HTU21D;33620;52.340;5.984;2023-04-06T10:02:08;10.39;56.24
47861;HTU21D;33620;52.340;5.984;2023-04-06T10:04:40;10.50;56.28
47861;HTU21D;33620;52.340;5.984;2023-04-06T10:07:07;10.58;55.84
47861;HTU21D;33620;52.340;5.984;2023-04-06T10:09:33;10.64;54.77
47861;HTU21D;33620;52.340;5.984;2023-04-06T10:12:04;10.68;54.58
47861;HTU21D;33620;52.340;5.984;2023-04-06T10:14:31;10.72;55.27
47861;HTU21D;33620;52.340;5.984;2023-04-06T10:16:56;10.79;53.39
47861;HTU21D;33620;52.340;5.984;2023-04-06T10:19:24;10.81;52.53
47861;HTU21D;33620;52.340;5.984;2023-04-06T10:21:51;10.87;54.28
47861;HTU21D;33620;52.340;5.984;2023-04-06T10:24:18;10.88;52.49
47861;HTU21D;33620;52.340;5.984;2023-04-06T10:26:54;10.92;53.07
47861;HTU21D;33620;52.340;5.984;2023-04-06T10:29:21;10.95;53.14
47861;HTU21D;33620;52.340;5.984;2023-04-06T10:31:48;11.00;52.91
47861;HTU21D;33620;52.340;5.984;2023-04-06T10:34:13;11.01;52.24
47861;HTU21D;33620;52.340;5.984;2023-04-06T10:36:39;11.05;53.23
47861;HTU21D;33620;52.340;5.984;2023-04-06T10:39:05;11.09;52.55
47861;HTU21D;33620;52.340;5.984;2023-04-06T10:41:32;11.12;52.46
47861;HTU21D;33620;52.340;5.984;2023-04-06T10:43:58;11.17;53.13
47861;HTU21D;33620;52.340;5.984;2023-04-06T10:46:28;11.20;52.55
47861;HTU21D;33620;52.340;5.984;2023-04-06T10:48:54;11.23;52.70
47861;HTU21D;33620;52.340;5.984;2023-04-06T10:51:23;11.28;53.13
47861;HTU21D;33620;52.340;5.984;2023-04-06T10:53:49;11.30;53.16
47861;HTU21D;33620;52.340;5.984;2023-04-06T10:56:15;11.33;53.82
47861;HTU21D;33620;52.340;5.984;2023-04-06T10:58:44;11.34;53.02
47861;HTU21D;33620;52.340;5.984;2023-04-06T11:01:16;11.34;52.11
47861;HTU21D;33620;52.340;5.984;2023-04-06T11:03:44;11.37;51.51
47861;HTU21D;33620;52.340;5.984;2023-04-06T11:06:10;11.37;52.10
47861;HTU21D;33620;52.340;5.984;2023-04-06T11:08:35;11.39;52.05
47861;HTU21D;33620;52.340;5.984;2023-04-06T11:11:08;11.41;52.03
47861;HTU21D;33620;52.340;5.984;2023-04-06T11:13:40;11.42;52.31
47861;HTU21D;33620;52.340;5.984;2023-04-06T11:16:06;11.43;52.44
47861;HTU21D;33620;52.340;5.984;2023-04-06T11:18:32;11.45;53.42
47861;HTU21D;33620;52.340;5.984;2023-04-06T11:20:57;11.46;53.73
47861;HTU21D;33620;52.340;5.984;2023-04-06T11:23:23;11.45;53.34
47861;HTU21D;33620;52.340;5.984;2023-04-06T11:25:50;11.46;54.31
47861;HTU21D;33620;52.340;5.984;2023-04-06T11:28:15;11.37;55.28
47861;HTU21D;33620;52.340;5.984;2023-04-06T11:30:41;11.34;56.12
47861;HTU21D;33620;52.340;5.984;2023-04-06T11:33:06;11.27;57.62
47861;HTU21D;33620;52.340;5.984;2023-04-06T11:35:31;11.19;57.83
47861;HTU21D;33620;52.340;5.984;2023-04-06T11:37:57;11.23;58.51
47861;HTU21D;33620;52.340;5.984;2023-04-06T11:40:23;11.08;58.16
47861;HTU21D;33620;52.340;5.984;2023-04-06T11:42:52;11.12;58.57
47861;HTU21D;33620;52.340;5.984;2023-04-06T11:45:18;11.14;58.66
47861;HTU21D;33620;52.340;5.984;2023-04-06T11:47:43;11.12;58.94
47861;HTU21D;33620;52.340;5.984;2023-04-06T11:50:10;11.20;59.38
47861;HTU21D;33620;52.340;5.984;2023-04-06T11:52:36;11.18;57.90
47861;HTU21D;33620;52.340;5.984;2023-04-06T11:55:13;11.23;59.22
47861;HTU21D;33620;52.340;5.984;2023-04-06T11:57:39;11.17;59.41
47861;HTU21D;33620;52.340;5.984;2023-04-06T12:00:05;11.04;60.31
47861;HTU21D;33620;52.340;5.984;2023-04-06T12:02:31;11.14;60.28
47861;HTU21D;33620;52.340;5.984;2023-04-06T12:04:57;11.20;61.30
47861;HTU21D;33620;52.340;5.984;2023-04-06T12:07:22;11.23;61.61
47861;HTU21D;33620;52.340;5.984;2023-04-06T12:09:47;11.26;62.65
47861;HTU21D;33620;52.340;5.984;2023-04-06T12:12:13;11.25;63.20
47861;HTU21D;33620;52.340;5.984;2023-04-06T12:14:38;11.25;63.63
47861;HTU21D;33620;52.340;5.984;2023-04-06T12:17:03;11.26;65.08
47861;HTU21D;33620;52.340;5.984;2023-04-06T12:19:29;11.26;66.19
47861;HTU21D;33620;52.340;5.984;2023-04-06T12:21:54;11.20;65.86
47861;HTU21D;33620;52.340;5.984;2023-04-06T12:24:19;11.19;65.64
47861;HTU21D;33620;52.340;5.984;2023-04-06T12:26:45;11.18;66.52
47861;HTU21D;33620;52.340;5.984;2023-04-06T12:29:10;11.17;67.16
47861;HTU21D;33620;52.340;5.984;2023-04-06T12:31:38;11.17;67.39
47861;HTU21D;33620;52.340;5.984;2023-04-06T12:34:03;11.16;67.81
47861;HTU21D;33620;52.340;5.984;2023-04-06T12:36:29;11.14;68.26
47861;HTU21D;33620;52.340;5.984;2023-04-06T12:38:54;11.05;67.42
47861;HTU21D;33620;52.340;5.984;2023-04-06T12:41:20;11.05;69.07
47861;HTU21D;33620;52.340;5.984;2023-04-06T12:43:46;10.98;69.18
47861;HTU21D;33620;52.340;5.984;2023-04-06T12:46:11;10.94;69.76
47861;HTU21D;33620;52.340;5.984;2023-04-06T12:48:36;10.93;70.74
47861;HTU21D;33620;52.340;5.984;2023-04-06T12:51:03;10.86;71.16
47861;HTU21D;33620;52.340;5.984;2023-04-06T12:53:28;10.65;71.61
47861;HTU21D;33620;52.340;5.984;2023-04-06T12:55:54;10.64;72.96
47861;HTU21D;33620;52.340;5.984;2023-04-06T12:58:20;10.63;74.51
47861;HTU21D;33620;52.340;5.984;2023-04-06T13:00:46;10.53;74.71
47861;HTU21D;33620;52.340;5.984;2023-04-06T13:03:12;10.52;75.04
47861;HTU21D;33620;52.340;5.984;2023-04-06T13:05:43;10.49;75.74
47861;HTU21D;33620;52.340;5.984;2023-04-06T13:08:08;10.44;76.09
47861;HTU21D;33620;52.340;5.984;2023-04-06T13:10:34;10.43;76.12
47861;HTU21D;33620;52.340;5.984;2023-04-06T13:12:59;10.39;76.17
47861;HTU21D;33620;52.340;5.984;2023-04-06T13:15:25;10.36;76.45
47861;HTU21D;33620;52.340;5.984;2023-04-06T13:17:50;10.35;76.79
47861;HTU21D;33620;52.340;5.984;2023-04-06T13:20:15;10.33;78.30
47861;HTU21D;33620;52.340;5.984;2023-04-06T13:22:41;10.23;77.66
47861;HTU21D;33620;52.340;5.984;2023-04-06T13:25:06;10.20;78.08
47861;HTU21D;33620;52.340;5.984;2023-04-06T13:27:32;10.23;79.02
47861;HTU21D;33620;52.340;5.984;2023-04-06T13:29:59;10.19;78.40
47861;HTU21D;33620;52.340;5.984;2023-04-06T13:32:24;10.20;79.14
47861;HTU21D;33620;52.340;5.984;2023-04-06T13:34:50;10.11;77.63
47861;HTU21D;33620;52.340;5.984;2023-04-06T13:37:18;10.06;77.71
47861;HTU21D;33620;52.340;5.984;2023-04-06T13:39:43;10.00;78.70
47861;HTU21D;33620;52.340;5.984;2023-04-06T13:42:08;10.00;79.37
47861;HTU21D;33620;52.340;5.984;2023-04-06T13:44:35;9.99;79.33
47861;HTU21D;33620;52.340;5.984;2023-04-06T13:47:00;9.94;79.21
47861;HTU21D;33620;52.340;5.984;2023-04-06T13:49:25;9.95;79.68
47861;HTU21D;33620;52.340;5.984;2023-04-06T13:51:51;9.85;78.68
47861;HTU21D;33620;52.340;5.984;2023-04-06T13:54:16;9.85;78.63
47861;HTU21D;33620;52.340;5.984;2023-04-06T13:56:42;9.79;79.19
47861;HTU21D;33620;52.340;5.984;2023-04-06T13:59:07;9.72;78.72
47861;HTU21D;33620;52.340;5.984;2023-04-06T14:01:32;9.69;79.23
47861;HTU21D;33620;52.340;5.984;2023-04-06T14:03:58;9.68;80.17
47861;HTU21D;33620;52.340;5.984;2023-04-06T14:06:23;9.64;80.15
47861;HTU21D;33620;52.340;5.984;2023-04-06T14:08:48;9.61;80.08
47861;HTU21D;33620;52.340;5.984;2023-04-06T14:11:14;9.59;80.28
47861;HTU21D;33620;52.340;5.984;2023-04-06T14:13:39;9.56;80.98
47861;HTU21D;33620;52.340;5.984;2023-04-06T14:16:05;9.53;80.51
47861;HTU21D;33620;52.340;5.984;2023-04-06T14:18:30;9.50;80.45
47861;HTU21D;33620;52.340;5.984;2023-04-06T14:20:56;9.45;81.36
47861;HTU21D;33620;52.340;5.984;2023-04-06T14:23:22;9.40;81.50
47861;HTU21D;33620;52.340;5.984;2023-04-06T14:25:47;9.41;82.22
47861;HTU21D;33620;52.340;5.984;2023-04-06T14:28:13;9.47;82.75
47861;HTU21D;33620;52.340;5.984;2023-04-06T14:30:38;9.44;83.20
47861;HTU21D;33620;52.340;5.984;2023-04-06T14:33:03;9.40;83.65
47861;HTU21D;33620;52.340;5.984;2023-04-06T14:35:29;9.38;83.82
47861;HTU21D;33620;52.340;5.984;2023-04-06T14:37:57;9.32;84.02
47861;HTU21D;33620;52.340;5.984;2023-04-06T14:40:23;9.26;84.06
47861;HTU21D;33620;52.340;5.984;2023-04-06T14:42:48;9.23;84.33
47861;HTU21D;33620;52.340;5.984;2023-04-06T14:45:15;9.23;84.95
47861;HTU21D;33620;52.340;5.984;2023-04-06T14:47:42;9.17;84.56
47861;HTU21D;33620;52.340;5.984;2023-04-06T14:50:07;9.16;85.13
47861;HTU21D;33620;52.340;5.984;2023-04-06T14:52:33;9.09;84.35
47861;HTU21D;33620;52.340;5.984;2023-04-06T14:54:58;9.03;84.32
47861;HTU21D;33620;52.340;5.984;2023-04-06T14:57:23;9.02;84.80
47861;HTU21D;33620;52.340;5.984;2023-04-06T14:59:48;9.07;85.22
47861;HTU21D;33620;52.340;5.984;2023-04-06T15:02:14;9.11;85.74
47861;HTU21D;33620;52.340;5.984;2023-04-06T15:04:40;9.11;86.17
47861;HTU21D;33620;52.340;5.984;2023-04-06T15:07:05;9.09;86.25
47861;HTU21D;33620;52.340;5.984;2023-04-06T15:09:30;9.09;86.32
47861;HTU21D;33620;52.340;5.984;2023-04-06T15:11:56;9.09;86.72
47861;HTU21D;33620;52.340;5.984;2023-04-06T15:14:21;9.04;86.75
47861;HTU21D;33620;52.340;5.984;2023-04-06T15:16:46;9.03;86.93
47861;HTU21D;33620;52.340;5.984;2023-04-06T15:19:12;9.01;87.29
47861;HTU21D;33620;52.340;5.984;2023-04-06T15:21:38;9.00;87.64